createdAt,value
2022-09-21T00:00:51.791Z,5.11
2022-09-21T00:03:18.611Z,5.10
2022-09-21T00:05:45.430Z,5.01
2022-09-21T00:08:14.116Z,5.07
2022-09-21T00:10:40.986Z,5.09
2022-09-21T00:13:08.870Z,5.03
2022-09-21T00:15:35.348Z,4.92
2022-09-21T00:18:01.879Z,5.00
2022-09-21T00:20:29.024Z,5.02
2022-09-21T00:22:55.448Z,5.09
2022-09-21T00:25:21.901Z,5.10
2022-09-21T00:27:50.181Z,5.10
2022-09-21T00:30:16.828Z,5.16
2022-09-21T00:32:43.411Z,5.18
2022-09-21T00:35:09.824Z,5.25
2022-09-21T00:37:36.723Z,5.28
2022-09-21T00:40:04.081Z,5.36
2022-09-21T00:42:33.678Z,5.39
2022-09-21T00:45:00.937Z,5.38
2022-09-21T00:47:37.144Z,5.44
2022-09-21T00:50:09.561Z,5.43
2022-09-21T00:52:43.883Z,5.41
2022-09-21T00:55:24.980Z,5.43
2022-09-21T00:57:58.434Z,5.46
2022-09-21T01:00:25.041Z,5.43
2022-09-21T01:02:51.785Z,5.47
2022-09-21T01:05:18.425Z,5.49
2022-09-21T01:07:48.274Z,5.54
2022-09-21T01:10:18.600Z,5.55
2022-09-21T01:13:18.871Z,5.57
2022-09-21T01:16:07.520Z,5.61
2022-09-21T01:18:37.309Z,5.62
2022-09-21T01:21:17.108Z,5.65
2022-09-21T01:24:11.517Z,5.67
2022-09-21T01:27:26.150Z,5.69
2022-09-21T01:29:59.161Z,5.67
2022-09-21T01:32:37.164Z,5.67
2022-09-21T01:35:18.669Z,5.72
2022-09-21T01:37:50.829Z,5.73
2022-09-21T01:40:38.119Z,5.67
2022-09-21T01:43:06.999Z,5.76
2022-09-21T01:45:43.339Z,5.77
2022-09-21T01:48:12.108Z,5.74
2022-09-21T01:50:44.747Z,5.68
2022-09-21T01:53:21.529Z,5.64
2022-09-21T01:56:04.756Z,5.68
2022-09-21T01:58:39.603Z,5.67
2022-09-21T02:01:11.953Z,5.65
2022-09-21T02:03:58.059Z,5.65
2022-09-21T02:06:30.055Z,5.64
2022-09-21T02:08:56.515Z,5.59
2022-09-21T02:11:23.037Z,5.41
2022-09-21T02:13:53.159Z,5.49
2022-09-21T02:16:34.453Z,5.50
2022-09-21T02:19:22.291Z,5.49
2022-09-21T02:22:10.137Z,5.39
2022-09-21T02:24:48.462Z,5.43
2022-09-21T02:27:45.810Z,5.40
2022-09-21T02:30:18.358Z,5.38
2022-09-21T02:33:03.905Z,5.38
2022-09-21T02:35:45.556Z,5.33
2022-09-21T02:38:26.516Z,5.33
2022-09-21T02:40:55.156Z,5.29
2022-09-21T02:43:27.863Z,5.21
2022-09-21T02:46:04.267Z,5.13
2022-09-21T02:48:53.835Z,5.15
2022-09-21T02:51:31.562Z,5.11
2022-09-21T02:54:01.232Z,5.11
2022-09-21T02:56:30.635Z,5.04
2022-09-21T02:59:01.322Z,4.92
2022-09-21T03:01:29.523Z,4.89
2022-09-21T03:03:56.236Z,4.80
2022-09-21T03:06:23.223Z,4.83
2022-09-21T03:08:50.071Z,4.83
2022-09-21T03:11:20.988Z,4.76
2022-09-21T03:13:47.749Z,4.79
2022-09-21T03:16:14.312Z,4.75
2022-09-21T03:18:43.410Z,4.74
2022-09-21T03:21:13.415Z,4.71
2022-09-21T03:23:40.661Z,4.63
2022-09-21T03:26:07.344Z,4.63
2022-09-21T03:28:34.154Z,4.66
2022-09-21T03:31:01.264Z,4.69
2022-09-21T03:33:28.226Z,4.59
2022-09-21T03:35:54.707Z,4.60
2022-09-21T03:38:21.680Z,4.59
2022-09-21T03:40:49.727Z,4.53
2022-09-21T03:43:17.499Z,4.56
2022-09-21T03:45:44.667Z,4.51
2022-09-21T03:48:12.665Z,4.53
2022-09-21T03:50:39.127Z,4.45
2022-09-21T03:53:05.849Z,4.44
2022-09-21T03:55:33.483Z,4.44
2022-09-21T03:58:00.113Z,4.37
2022-09-21T04:00:27.291Z,4.37
2022-09-21T04:02:53.972Z,4.37
2022-09-21T04:05:20.866Z,4.32
2022-09-21T04:07:47.664Z,4.30
2022-09-21T04:10:17.864Z,4.27
2022-09-21T04:12:45.298Z,4.23
2022-09-21T04:15:14.322Z,4.18
2022-09-21T04:17:41.099Z,4.13
2022-09-21T04:20:09.068Z,4.10
2022-09-21T04:22:41.128Z,4.04
2022-09-21T04:25:10.616Z,3.91
2022-09-21T04:27:37.490Z,3.83
2022-09-21T04:30:05.039Z,3.88
2022-09-21T04:32:31.636Z,3.84
2022-09-21T04:34:58.288Z,3.83
2022-09-21T04:37:24.993Z,3.85
2022-09-21T04:39:51.922Z,3.78
2022-09-21T04:42:18.925Z,3.86
2022-09-21T04:44:45.369Z,3.79
2022-09-21T04:47:11.929Z,3.73
2022-09-21T04:49:38.637Z,3.70
2022-09-21T04:52:05.995Z,3.61
2022-09-21T04:54:32.541Z,3.61
2022-09-21T04:56:58.986Z,3.55
2022-09-21T04:59:25.620Z,3.53
2022-09-21T05:01:52.056Z,3.52
2022-09-21T05:04:18.518Z,3.45
2022-09-21T05:06:45.014Z,3.37
2022-09-21T05:09:30.044Z,3.45
2022-09-21T05:11:56.520Z,3.54
2022-09-21T05:14:23.280Z,3.53
2022-09-21T05:16:49.749Z,3.57
2022-09-21T05:19:17.185Z,3.66
2022-09-21T05:21:43.796Z,3.64
2022-09-21T05:24:10.320Z,3.66
2022-09-21T05:26:36.730Z,3.71
2022-09-21T05:29:03.699Z,3.72
2022-09-21T05:31:43.620Z,3.80
2022-09-21T05:34:30.173Z,3.87
2022-09-21T05:37:37.687Z,3.97
2022-09-21T05:40:05.582Z,3.97
2022-09-21T05:42:32.614Z,4.08
2022-09-21T05:44:59.440Z,4.19
2022-09-21T05:47:59.850Z,4.29
2022-09-21T05:50:48.219Z,4.36
2022-09-21T05:53:39.268Z,4.46
2022-09-21T05:56:47.544Z,4.53
2022-09-21T05:59:45.059Z,4.58
2022-09-21T06:02:41.087Z,4.67
2022-09-21T06:05:12.741Z,4.83
2022-09-21T06:07:39.196Z,4.88
2022-09-21T06:10:06.283Z,4.92
2022-09-21T06:12:32.927Z,4.94
2022-09-21T06:14:59.425Z,5.00
2022-09-21T06:17:27.415Z,5.00
2022-09-21T06:19:54.227Z,5.12
2022-09-21T06:22:21.433Z,5.39
2022-09-21T06:24:47.897Z,5.60
2022-09-21T06:27:14.685Z,5.89
2022-09-21T06:29:41.122Z,6.60
2022-09-21T06:32:08.174Z,7.29
2022-09-21T06:34:34.594Z,8.76
2022-09-21T06:37:01.064Z,10.33
2022-09-21T06:39:27.482Z,11.97
2022-09-21T06:41:53.965Z,12.67
2022-09-21T06:44:20.633Z,13.52
2022-09-21T06:46:47.291Z,14.12
2022-09-21T06:49:14.045Z,14.79
2022-09-21T06:51:40.696Z,15.74
2022-09-21T06:54:07.453Z,15.84
2022-09-21T06:56:34.113Z,15.58
2022-09-21T06:59:00.610Z,14.91
2022-09-21T07:01:27.744Z,16.01
2022-09-21T07:03:54.331Z,16.06
2022-09-21T07:06:21.481Z,16.80
2022-09-21T07:11:35.016Z,16.06
2022-09-21T07:14:01.507Z,17.01
2022-09-21T07:16:28.052Z,16.89
2022-09-21T07:18:54.664Z,17.46
2022-09-21T07:21:22.118Z,17.51
2022-09-21T07:23:48.867Z,18.19
2022-09-21T07:26:15.711Z,16.93
2022-09-21T07:28:45.244Z,17.70
2022-09-21T07:31:15.287Z,18.40
2022-09-21T07:33:43.013Z,18.07
2022-09-21T07:36:10.732Z,17.80
2022-09-21T07:38:42.126Z,17.51
2022-09-21T07:41:10.552Z,16.46
2022-09-21T07:43:39.436Z,16.04
2022-09-21T07:46:14.481Z,16.43
2022-09-21T07:48:41.588Z,17.03
2022-09-21T07:51:11.294Z,16.24
2022-09-21T07:53:39.716Z,16.33
2022-09-21T07:56:13.828Z,16.78
2022-09-21T07:58:59.920Z,16.77
2022-09-21T08:01:27.926Z,16.02
2022-09-21T08:03:57.339Z,16.06
2022-09-21T08:06:26.917Z,16.76
2022-09-21T08:08:57.485Z,17.02
2022-09-21T08:11:26.385Z,17.86
2022-09-21T08:13:54.530Z,17.62
2022-09-21T08:16:21.312Z,16.79
2022-09-21T08:18:47.968Z,16.72
2022-09-21T08:21:14.499Z,17.63
2022-09-21T08:23:42.642Z,16.92
2022-09-21T08:26:13.413Z,17.24
2022-09-21T08:28:40.292Z,16.79
2022-09-21T08:31:11.305Z,17.14
2022-09-21T08:33:37.765Z,16.84
2022-09-21T08:36:04.887Z,16.58
2022-09-21T08:38:36.852Z,17.26
2022-09-21T08:41:31.317Z,16.78
2022-09-21T08:44:11.759Z,16.16
2022-09-21T08:46:39.868Z,16.71
2022-09-21T08:49:23.029Z,15.29
2022-09-21T08:52:17.080Z,14.09
2022-09-21T08:54:54.794Z,13.99
2022-09-21T08:57:25.468Z,15.97
2022-09-21T08:59:51.986Z,16.65
2022-09-21T09:02:37.767Z,16.88
2022-09-21T09:05:45.858Z,16.00
2022-09-21T09:08:33.028Z,14.32
2022-09-21T09:11:24.975Z,13.52
2022-09-21T09:14:10.144Z,13.35
2022-09-21T09:16:58.393Z,12.55
2022-09-21T09:19:40.469Z,12.54
2022-09-21T09:22:10.937Z,12.18
2022-09-21T09:24:52.025Z,13.19
2022-09-21T09:27:41.329Z,13.68
2022-09-21T09:30:13.734Z,13.69
2022-09-21T09:33:01.705Z,13.40
2022-09-21T09:35:36.380Z,12.83
2022-09-21T09:38:17.996Z,12.43
2022-09-21T09:41:05.720Z,12.11
2022-09-21T09:44:17.078Z,12.19
2022-09-21T09:47:08.281Z,12.41
2022-09-21T09:49:46.811Z,12.45
2022-09-21T09:52:16.624Z,12.58
2022-09-21T09:54:44.215Z,12.71
2022-09-21T09:57:11.997Z,14.28
2022-09-21T09:59:54.234Z,14.53
2022-09-21T10:02:29.525Z,13.79
2022-09-21T10:05:06.271Z,13.46
2022-09-21T10:07:46.166Z,13.03
2022-09-21T10:10:21.860Z,12.87
2022-09-21T10:12:49.857Z,12.71
2022-09-21T10:15:23.457Z,12.62
2022-09-21T10:18:03.138Z,12.28
2022-09-21T10:20:30.991Z,11.83
2022-09-21T10:23:01.203Z,11.33
2022-09-21T10:25:27.776Z,11.13
2022-09-21T10:27:56.060Z,11.15
2022-09-21T10:30:35.471Z,11.03
2022-09-21T10:33:02.024Z,10.79
2022-09-21T10:35:28.543Z,10.74
2022-09-21T10:38:22.449Z,10.67
2022-09-21T10:40:50.491Z,10.63
2022-09-21T10:43:24.542Z,10.73
2022-09-21T10:45:56.944Z,10.78
2022-09-21T10:48:25.960Z,10.99
2022-09-21T10:50:54.799Z,11.32
2022-09-21T10:53:28.370Z,11.70
2022-09-21T10:56:21.707Z,12.03
2022-09-21T10:59:12.963Z,12.59
2022-09-21T11:01:48.687Z,13.07
2022-09-21T11:04:30.964Z,13.41
2022-09-21T11:07:04.832Z,13.21
2022-09-21T11:09:53.378Z,13.22
2022-09-21T11:12:43.954Z,13.12
2022-09-21T11:15:37.794Z,12.93
2022-09-21T11:18:12.708Z,12.82
2022-09-21T11:20:49.074Z,12.65
2022-09-21T11:23:33.888Z,12.54
2022-09-21T11:26:06.536Z,12.38
2022-09-21T11:28:42.274Z,12.33
2022-09-21T11:31:29.803Z,12.45
2022-09-21T11:34:27.173Z,12.47
2022-09-21T11:37:02.777Z,12.64
2022-09-21T11:39:54.040Z,12.57
2022-09-21T11:42:33.612Z,12.55
2022-09-21T11:45:02.909Z,12.45
2022-09-21T11:47:48.436Z,12.72
2022-09-21T11:50:44.914Z,12.88
2022-09-21T11:53:42.228Z,12.69
2022-09-21T11:56:36.597Z,12.88
2022-09-21T11:59:32.966Z,13.16
2022-09-21T12:02:30.161Z,13.20
2022-09-21T12:05:06.184Z,12.83
2022-09-21T12:08:22.773Z,12.74
2022-09-21T12:11:00.520Z,13.17
2022-09-21T12:13:51.821Z,13.27
2022-09-21T12:16:38.436Z,13.32
2022-09-21T12:19:27.685Z,13.40
2022-09-21T12:22:06.520Z,13.71
2022-09-21T12:24:40.071Z,13.82
2022-09-21T12:27:40.401Z,13.93
2022-09-21T12:30:17.937Z,13.96
2022-09-21T12:33:07.259Z,13.97
2022-09-21T12:38:36.519Z,14.21
2022-09-21T12:41:16.977Z,14.31
2022-09-21T12:44:00.873Z,14.78
2022-09-21T12:46:47.812Z,14.32
2022-09-21T12:49:24.020Z,14.53
2022-09-21T12:51:55.483Z,14.13
2022-09-21T12:54:50.521Z,14.24
2022-09-21T12:57:45.646Z,14.04
2022-09-21T13:00:20.362Z,13.97
2022-09-21T13:02:54.883Z,13.87
2022-09-21T13:05:27.485Z,13.52
2022-09-21T13:08:16.441Z,13.16
2022-09-21T13:10:57.923Z,12.72
2022-09-21T13:13:44.404Z,12.59
2022-09-21T13:16:28.887Z,12.58
2022-09-21T13:19:04.784Z,12.54
2022-09-21T13:21:33.434Z,12.52
2022-09-21T13:24:05.303Z,12.43
2022-09-21T13:26:35.459Z,12.53
2022-09-21T13:29:04.201Z,12.33
2022-09-21T13:31:42.081Z,12.29
2022-09-21T13:34:25.729Z,12.28
2022-09-21T13:37:19.347Z,12.34
2022-09-21T13:39:57.768Z,12.52
2022-09-21T13:42:30.167Z,12.56
2022-09-21T13:44:58.192Z,12.51
2022-09-21T13:47:33.847Z,12.44
2022-09-21T13:50:04.521Z,12.39
2022-09-21T13:52:40.353Z,12.62
2022-09-21T13:55:29.305Z,13.01
2022-09-21T13:58:02.217Z,13.21
2022-09-21T14:00:35.858Z,13.19
2022-09-21T14:03:20.638Z,13.12
2022-09-21T14:05:51.736Z,13.37
2022-09-21T14:08:27.096Z,13.62
2022-09-21T14:10:57.350Z,13.60
2022-09-21T14:13:39.030Z,13.48
2022-09-21T14:16:36.541Z,13.69
2022-09-21T14:19:26.869Z,13.49
2022-09-21T14:22:08.406Z,13.50
2022-09-21T14:24:46.767Z,13.41
2022-09-21T14:27:44.787Z,13.31
2022-09-21T14:30:28.052Z,13.11
2022-09-21T14:33:01.023Z,13.02
2022-09-21T14:35:33.947Z,12.84
2022-09-21T14:38:05.390Z,12.61
2022-09-21T14:40:42.323Z,12.35
2022-09-21T14:43:15.065Z,12.18
2022-09-21T14:46:18.623Z,12.07
2022-09-21T14:48:53.941Z,12.13
2022-09-21T14:51:36.495Z,12.31
2022-09-21T14:54:48.096Z,12.23
2022-09-21T14:57:35.163Z,12.07
2022-09-21T15:00:20.867Z,12.16
2022-09-21T15:02:52.981Z,12.22
2022-09-21T15:05:42.281Z,12.28
2022-09-21T15:09:14.915Z,12.28
2022-09-21T15:11:51.506Z,12.36
2022-09-21T15:18:00.680Z,12.30
2022-09-21T15:20:29.540Z,12.30
2022-09-21T15:22:57.593Z,12.40
2022-09-21T15:25:27.832Z,12.51
2022-09-21T15:27:55.098Z,12.60
2022-09-21T15:34:13.133Z,12.73
2022-09-21T15:36:41.985Z,12.72
2022-09-21T15:39:28.928Z,12.82
2022-09-21T15:42:17.738Z,12.83
2022-09-21T15:44:48.756Z,12.86
2022-09-21T15:47:22.024Z,12.85
2022-09-21T15:49:49.126Z,12.82
2022-09-21T15:52:34.711Z,12.72
2022-09-21T15:55:30.990Z,12.71
2022-09-21T15:57:58.596Z,12.68
2022-09-21T16:00:36.685Z,12.62
2022-09-21T16:03:21.363Z,12.46
2022-09-21T16:05:56.161Z,12.39
2022-09-21T16:08:34.492Z,12.14
2022-09-21T16:11:26.271Z,11.98
2022-09-21T16:14:37.843Z,11.86
2022-09-21T16:17:13.227Z,11.77
2022-09-21T16:19:44.646Z,11.57
2022-09-21T16:22:17.682Z,11.53
2022-09-21T16:24:50.379Z,11.43
2022-09-21T16:27:19.546Z,11.26
2022-09-21T16:29:48.510Z,11.13
2022-09-21T16:32:17.743Z,11.06
2022-09-21T16:34:45.812Z,10.90
2022-09-21T16:37:30.098Z,10.74
2022-09-21T16:39:58.493Z,10.55
2022-09-21T16:42:28.019Z,10.54
2022-09-21T16:44:55.495Z,10.49
2022-09-21T16:47:27.681Z,10.46
2022-09-21T16:49:57.801Z,10.32
2022-09-21T16:52:25.143Z,10.28
2022-09-21T16:54:51.731Z,10.19
2022-09-21T16:57:18.362Z,10.15
2022-09-21T16:59:44.830Z,10.02
2022-09-21T17:02:14.361Z,9.90
2022-09-21T17:04:41.753Z,9.80
2022-09-21T17:07:14.170Z,9.78
2022-09-21T17:09:46.373Z,9.65
2022-09-21T17:12:15.509Z,9.52
2022-09-21T17:14:46.422Z,9.43
2022-09-21T17:24:55.775Z,8.99
2022-09-21T17:27:25.406Z,9.07
2022-09-21T17:33:32.461Z,8.93
2022-09-21T17:35:59.127Z,8.79
2022-09-21T17:38:25.795Z,8.63
2022-09-21T17:40:53.585Z,8.54
2022-09-21T17:43:41.168Z,8.47
2022-09-21T17:46:24.912Z,8.41
2022-09-21T17:48:51.701Z,8.31
2022-09-21T17:51:38.395Z,8.25
2022-09-21T17:54:05.293Z,8.13
2022-09-21T17:56:47.879Z,8.06
2022-09-21T17:59:30.243Z,7.97
2022-09-21T18:01:59.636Z,7.89
2022-09-21T18:08:14.245Z,7.69
2022-09-21T18:10:48.871Z,7.63
2022-09-21T18:13:32.657Z,7.58
2022-09-21T18:16:35.052Z,7.46
2022-09-21T18:19:10.630Z,7.44
2022-09-21T18:21:40.743Z,7.23
2022-09-21T18:24:30.988Z,7.29
2022-09-21T18:26:58.744Z,7.26
2022-09-21T18:29:46.006Z,7.22
2022-09-21T18:32:15.310Z,7.15
2022-09-21T18:35:09.293Z,7.11
2022-09-21T18:37:51.578Z,7.03
2022-09-21T18:40:36.941Z,6.99
2022-09-21T18:43:26.110Z,6.91
2022-09-21T18:46:01.832Z,6.87
2022-09-21T18:49:04.093Z,6.85
2022-09-21T18:51:39.364Z,6.80
2022-09-21T18:54:08.970Z,6.70
2022-09-21T18:56:37.835Z,6.74
2022-09-21T18:59:07.238Z,6.69
2022-09-21T19:01:34.201Z,6.64
2022-09-21T19:04:01.523Z,6.63
2022-09-21T19:06:40.493Z,6.53
2022-09-21T19:09:21.955Z,6.47
2022-09-21T19:11:51.994Z,6.35
2022-09-21T19:14:43.553Z,6.29
2022-09-21T19:17:28.812Z,6.27
2022-09-21T19:20:19.752Z,6.24
2022-09-21T19:22:59.038Z,6.18
2022-09-21T19:25:47.254Z,6.12
2022-09-21T19:29:04.491Z,6.13
2022-09-21T19:31:31.215Z,6.01
2022-09-21T19:33:57.959Z,5.94
2022-09-21T19:36:24.622Z,5.87
2022-09-21T19:38:51.433Z,5.80
2022-09-21T19:41:42.098Z,5.85
2022-09-21T19:44:32.513Z,5.84
2022-09-21T19:47:19.135Z,5.88
2022-09-21T19:49:50.014Z,5.78
2022-09-21T19:52:19.152Z,5.77
2022-09-21T19:55:04.652Z,5.79
2022-09-21T19:57:50.066Z,5.75
2022-09-21T20:00:18.630Z,5.65
2022-09-21T20:03:15.307Z,5.64
2022-09-21T20:05:53.742Z,5.66
2022-09-21T20:08:29.878Z,5.67
2022-09-21T20:11:00.937Z,5.65
2022-09-21T20:13:45.328Z,5.58
2022-09-21T20:16:19.315Z,5.55
2022-09-21T20:18:54.719Z,5.51
2022-09-21T20:21:22.746Z,5.44
2022-09-21T20:23:58.678Z,5.40
2022-09-21T20:26:27.274Z,5.46
2022-09-21T20:28:54.827Z,5.43
2022-09-21T20:31:23.515Z,5.45
2022-09-21T20:33:49.990Z,5.35
2022-09-21T20:36:16.595Z,5.25
2022-09-21T20:38:44.024Z,5.10
2022-09-21T20:41:15.948Z,5.05
2022-09-21T20:43:43.156Z,5.08
2022-09-21T20:46:10.875Z,5.07
2022-09-21T20:48:38.369Z,5.03
2022-09-21T20:51:06.091Z,5.01
2022-09-21T20:53:34.089Z,5.00
2022-09-21T20:56:03.896Z,4.90
2022-09-21T20:58:30.731Z,4.87
2022-09-21T21:01:04.460Z,4.94
2022-09-21T21:03:31.115Z,4.93
2022-09-21T21:06:15.957Z,4.76
2022-09-21T21:08:43.151Z,4.86
2022-09-21T21:11:10.748Z,4.82
2022-09-21T21:13:37.631Z,4.79
2022-09-21T21:16:08.283Z,4.78
2022-09-21T21:18:41.665Z,4.70
2022-09-21T21:21:08.268Z,4.67
2022-09-21T21:23:54.635Z,4.66
2022-09-21T21:26:26.270Z,4.68
2022-09-21T21:28:59.943Z,4.60
2022-09-21T21:31:26.426Z,4.60
2022-09-21T21:33:53.095Z,4.49
2022-09-21T21:36:19.534Z,4.56
2022-09-21T21:38:45.942Z,4.53
2022-09-21T21:41:12.941Z,4.49
2022-09-21T21:43:40.727Z,4.50
2022-09-21T21:46:11.249Z,4.46
2022-09-21T21:48:39.034Z,4.45
2022-09-21T21:51:06.812Z,4.47
2022-09-21T21:53:38.545Z,4.40
2022-09-21T21:56:13.170Z,4.34
2022-09-21T21:58:39.674Z,4.31
2022-09-21T22:01:13.587Z,4.33
2022-09-21T22:03:41.448Z,4.31
2022-09-21T22:06:09.936Z,4.29
2022-09-21T22:08:37.951Z,4.25
2022-09-21T22:11:05.314Z,4.19
2022-09-21T22:13:36.765Z,4.15
2022-09-21T22:16:08.533Z,4.09
2022-09-21T22:18:36.059Z,4.09
2022-09-21T22:21:08.001Z,4.07
2022-09-21T22:23:35.210Z,4.10
2022-09-21T22:26:16.355Z,4.08
2022-09-21T22:28:45.745Z,4.05
2022-09-21T22:31:18.423Z,3.97
2022-09-21T22:33:45.865Z,3.96
2022-09-21T22:36:20.846Z,3.98
2022-09-21T22:38:47.892Z,3.97
2022-09-21T22:41:19.971Z,3.92
2022-09-21T22:43:48.122Z,3.92
2022-09-21T22:46:18.275Z,3.94
2022-09-21T22:48:48.175Z,3.92
2022-09-21T22:51:16.701Z,3.93
2022-09-21T22:53:43.431Z,3.93
2022-09-21T22:56:12.631Z,3.86
2022-09-21T22:58:42.693Z,3.93
2022-09-21T23:01:14.025Z,3.84
2022-09-21T23:03:42.071Z,3.80
2022-09-21T23:06:11.899Z,3.72
2022-09-21T23:08:38.984Z,3.73
2022-09-21T23:11:12.174Z,3.78
2022-09-21T23:13:38.610Z,3.73
2022-09-21T23:16:07.096Z,3.73
2022-09-21T23:18:34.781Z,3.72
2022-09-21T23:21:07.309Z,3.71
2022-09-21T23:23:34.510Z,3.67
2022-09-21T23:26:08.943Z,3.64
2022-09-21T23:28:36.469Z,3.63
2022-09-21T23:31:05.508Z,3.61
2022-09-21T23:33:40.828Z,3.53
2022-09-21T23:36:09.123Z,3.50
2022-09-21T23:38:36.709Z,3.47
2022-09-21T23:41:13.860Z,3.44
2022-09-21T23:43:41.957Z,3.34
2022-09-21T23:46:11.648Z,3.42
2022-09-21T23:48:38.821Z,3.42
2022-09-21T23:51:06.168Z,3.42
2022-09-21T23:53:33.178Z,3.51
2022-09-21T23:55:59.653Z,3.47
2022-09-21T23:58:27.226Z,3.46
